KCEZ

Cortez Municipal Airport

Cortez, Colorado, USA
METAR KCEZ 230953Z AUTO 21005KT 10SM CLR M07/M14 A3002 RMK AO2 SLP173 T10721144
Observed Flight Rules
Feb-23 @ 09:53 UTC (36 minutes ago) Visual Flight Rules
Wind Visibility Clouds
210° at 5 knots 10 miles
  • Clear skies
Temperatures Readings
Current -7°C / 19°F
Dewpoint -14°C / 7°F
Humidity 58%
Altimeter 30.02" Hg
Pressure 1017.3 hPa
Elevation 1797
METAR KCEZ 230953Z AUTO 21005KT 10SM CLR M07/M14 A3002 RMK AO2 SLP173 T10721144
Observed Flight Rules
Feb-23 @ 09:53 UTC
(36 minutes ago)
VFR
Wind Visibility
210° at 5 knots 10 miles
Clouds
  • Clear skies
Temperature Dewpoint
-7°C / 19°F -14°C / 7°F
Humidity Altimeter Pressure
58% 30.02" Hg 1017.3 hPa